Time;durP1;ratioP1;P1;durP2;ratioP2;P2;SDS_P1;SDS_P2;PMS_P1;PMS_P2;Temp;Humidity;BMP_temperature;BMP_pressure;BME280_temperature;BME280_humidity;BME280_pressure;Samples;Min_cycle;Max_cycle;Signal;HPM_P1;HPM_P2
2021/08/22 00:01:24;;;;;;;10.73;9.73;;;;;;;;;;5092669;28;20031;-72
2021/08/22 00:03:50;;;;;;;8.80;8.00;;;;;;;;;;5097310;28;20074;-72
2021/08/22 00:06:16;;;;;;;9.98;8.55;;;;;;;;;;5097958;28;20021;-72
2021/08/22 00:08:42;;;;;;;15.05;9.40;;;;;;;;;;5098237;28;20556;-72
2021/08/22 00:11:08;;;;;;;10.63;8.15;;;;;;;;;;5097600;28;20020;-74
2021/08/22 00:13:34;;;;;;;11.40;7.97;;;;;;;;;;5097945;28;20059;-72
2021/08/22 00:16:00;;;;;;;8.85;8.05;;;;;;;;;;5097571;28;20027;-72
2021/08/22 00:18:26;;;;;;;8.93;7.95;;;;;;;;;;5097477;28;20062;-72
2021/08/22 00:20:52;;;;;;;8.77;7.85;;;;;;;;;;5097647;28;20024;-72
2021/08/22 00:23:19;;;;;;;12.38;10.13;;;;;;;;;;5097546;28;20048;-72
2021/08/22 00:25:45;;;;;;;9.27;8.25;;;;;;;;;;5097493;28;20016;-72
2021/08/22 00:28:11;;;;;;;13.60;9.00;;;;;;;;;;5097407;28;20075;-71
2021/08/22 00:30:37;;;;;;;8.75;7.93;;;;;;;;;;5097327;28;20020;-72
2021/08/22 00:33:03;;;;;;;8.63;7.30;;;;;;;;;;5097307;28;20036;-72
2021/08/22 00:35:29;;;;;;;10.95;9.02;;;;;;;;;;5097190;28;20020;-72
2021/08/22 00:37:56;;;;;;;16.63;8.63;;;;;;;;;;5097915;28;20071;-72
2021/08/22 00:40:22;;;;;;;8.55;7.75;;;;;;;;;;5097454;28;20027;-72
2021/08/22 00:42:48;;;;;;;9.63;8.23;;;;;;;;;;5096972;28;20389;-71
2021/08/22 00:45:14;;;;;;;8.93;8.13;;;;;;;;;;5096853;28;20389;-73
2021/08/22 00:47:41;;;;;;;8.48;7.60;;;;;;;;;;5096716;28;20028;-73
2021/08/22 00:50:07;;;;;;;8.70;7.80;;;;;;;;;;5097165;28;20028;-72
2021/08/22 00:52:34;;;;;;;12.38;9.07;;;;;;;;;;5097049;28;20039;-73
2021/08/22 00:55:01;;;;;;;12.00;7.45;;;;;;;;;;5096927;28;20411;-72
2021/08/22 00:57:28;;;;;;;9.50;8.57;;;;;;;;;;5096723;28;20059;-73
2021/08/22 00:59:54;;;;;;;9.77;8.63;;;;;;;;;;5096763;28;20097;-73
2021/08/22 01:02:25;;;;;;;9.90;7.78;;;;;;;;;;5096722;28;20044;-73
2021/08/22 01:04:51;;;;;;;8.33;7.53;;;;;;;;;;5097086;28;20024;-73
2021/08/22 01:07:19;;;;;;;9.00;7.50;;;;;;;;;;5096775;28;20267;-73
2021/08/22 01:09:46;;;;;;;15.23;8.63;;;;;;;;;;5096691;28;20020;-73
2021/08/22 01:12:13;;;;;;;8.68;7.90;;;;;;;;;;5096883;28;20027;-72
2021/08/22 01:14:40;;;;;;;8.05;7.32;;;;;;;;;;5095614;28;20024;-72
2021/08/22 01:17:06;;;;;;;8.48;7.53;;;;;;;;;;5096092;28;20035;-72
2021/08/22 01:19:52;;;;;;;8.90;8.00;;;;;;;;;;5096364;28;20115;-72
2021/08/22 01:22:18;;;;;;;9.35;8.32;;;;;;;;;;5095808;28;20024;-73
2021/08/22 01:24:44;;;;;;;9.52;8.60;;;;;;;;;;5096528;28;20499;-72
2021/08/22 01:27:10;;;;;;;8.73;7.82;;;;;;;;;;5096068;28;20477;-73
2021/08/22 01:29:38;;;;;;;11.70;8.65;;;;;;;;;;5095975;28;20031;-73
2021/08/22 01:32:05;;;;;;;11.73;7.90;;;;;;;;;;5096312;28;20393;-72
2021/08/22 01:34:31;;;;;;;9.30;8.40;;;;;;;;;;5096512;28;20030;-72
2021/08/22 01:36:57;;;;;;;9.57;8.68;;;;;;;;;;5096403;28;20020;-72
2021/08/22 01:39:23;;;;;;;12.18;7.55;;;;;;;;;;5095772;28;20085;-73
2021/08/22 01:41:50;;;;;;;8.27;7.15;;;;;;;;;;5096014;28;20103;-72
2021/08/22 01:44:16;;;;;;;10.85;9.80;;;;;;;;;;5095798;28;20054;-72
2021/08/22 01:46:42;;;;;;;9.07;8.18;;;;;;;;;;5096042;28;20035;-71
2021/08/22 01:49:09;;;;;;;10.45;8.45;;;;;;;;;;5095812;28;20048;-74
2021/08/22 01:51:35;;;;;;;10.20;7.97;;;;;;;;;;5096063;28;20020;-73
2021/08/22 01:54:06;;;;;;;9.57;8.18;;;;;;;;;;5095997;28;20039;-72
2021/08/22 01:56:32;;;;;;;9.77;8.80;;;;;;;;;;5096225;28;20499;-72
2021/08/22 01:58:59;;;;;;;10.52;8.38;;;;;;;;;;5095668;28;20063;-72
2021/08/22 02:01:25;;;;;;;18.90;8.27;;;;;;;;;;5095606;28;20429;-73
2021/08/22 02:03:54;;;;;;;9.82;8.35;;;;;;;;;;5096064;28;20048;-72
2021/08/22 02:06:24;;;;;;;12.25;9.23;;;;;;;;;;5095737;28;20126;-72
2021/08/22 02:08:52;;;;;;;11.48;9.07;;;;;;;;;;5095611;28;20028;-72
2021/08/22 02:11:19;;;;;;;10.35;9.35;;;;;;;;;;5094887;28;20024;-73
2021/08/22 02:13:45;;;;;;;9.50;8.60;;;;;;;;;;5096003;28;20020;-71
2021/08/22 02:16:12;;;;;;;10.23;8.60;;;;;;;;;;5095374;28;20051;-72
2021/08/22 02:18:38;;;;;;;16.25;10.15;;;;;;;;;;5095344;28;20039;-72
2021/08/22 02:21:04;;;;;;;9.48;8.60;;;;;;;;;;5095479;28;20024;-72
2021/08/22 02:23:30;;;;;;;10.82;9.35;;;;;;;;;;5094939;28;20111;-73
2021/08/22 02:25:56;;;;;;;11.20;10.13;;;;;;;;;;5094712;28;20024;-73
2021/08/22 02:28:22;;;;;;;11.18;9.05;;;;;;;;;;5095614;28;20073;-71
2021/08/22 02:30:49;;;;;;;13.10;11.20;;;;;;;;;;5095360;28;20100;-73
2021/08/22 02:33:15;;;;;;;14.15;9.57;;;;;;;;;;5094960;28;20027;-72
2021/08/22 02:35:42;;;;;;;9.63;8.63;;;;;;;;;;5095517;28;20103;-72
2021/08/22 02:38:08;;;;;;;9.95;9.05;;;;;;;;;;5095013;28;20035;-73
2021/08/22 02:40:34;;;;;;;16.20;11.25;;;;;;;;;;5094829;28;20024;-72
2021/08/22 02:43:00;;;;;;;11.30;8.55;;;;;;;;;;5094977;28;20485;-72
2021/08/22 02:45:26;;;;;;;9.32;8.43;;;;;;;;;;5094727;28;20083;-72
2021/08/22 02:47:57;;;;;;;10.77;9.10;;;;;;;;;;5094770;28;20024;-73
2021/08/22 02:50:23;;;;;;;10.25;9.25;;;;;;;;;;5095115;28;20111;-72
2021/08/22 02:52:49;;;;;;;10.27;9.27;;;;;;;;;;5094953;28;20499;-72
2021/08/22 02:55:15;;;;;;;9.77;8.60;;;;;;;;;;5094424;28;20515;-73
2021/08/22 02:57:42;;;;;;;10.55;9.10;;;;;;;;;;5095359;28;20443;-73
2021/08/22 03:00:08;;;;;;;8.75;7.95;;;;;;;;;;5095247;28;20027;-71
2021/08/22 03:02:34;;;;;;;8.80;7.95;;;;;;;;;;5094609;28;20461;-72
2021/08/22 03:05:00;;;;;;;10.07;8.82;;;;;;;;;;5094519;28;20024;-72
2021/08/22 03:07:26;;;;;;;11.48;10.18;;;;;;;;;;5094393;28;20028;-73
2021/08/22 03:09:52;;;;;;;9.30;8.50;;;;;;;;;;5094385;28;20024;-72
2021/08/22 03:12:18;;;;;;;9.65;8.63;;;;;;;;;;5094626;28;20024;-72
2021/08/22 03:14:45;;;;;;;8.65;7.85;;;;;;;;;;5094878;28;20020;-72
2021/08/22 03:17:11;;;;;;;9.90;9.02;;;;;;;;;;5094001;28;20492;-73
2021/08/22 03:19:37;;;;;;;9.60;8.70;;;;;;;;;;5094323;28;20457;-71
2021/08/22 03:22:03;;;;;;;9.85;8.95;;;;;;;;;;5094292;28;20216;-72
2021/08/22 03:24:29;;;;;;;12.93;9.02;;;;;;;;;;5094008;28;20107;-72
2021/08/22 03:26:55;;;;;;;7.90;7.20;;;;;;;;;;5094442;28;20461;-72
2021/08/22 03:29:21;;;;;;;11.35;9.88;;;;;;;;;;5094084;28;20389;-73
2021/08/22 03:31:47;;;;;;;9.70;8.70;;;;;;;;;;5094172;28;20089;-73
2021/08/22 03:34:13;;;;;;;12.85;8.32;;;;;;;;;;5094471;28;20061;-72
2021/08/22 03:36:39;;;;;;;11.32;8.70;;;;;;;;;;5094058;28;20488;-73
2021/08/22 03:39:05;;;;;;;9.27;7.63;;;;;;;;;;5097842;28;20035;-72
2021/08/22 03:41:33;;;;;;;9.32;8.52;;;;;;;;;;5098203;28;20111;-73
2021/08/22 03:43:59;;;;;;;15.43;9.00;;;;;;;;;;5099106;28;20024;-72
2021/08/22 03:46:25;;;;;;;9.75;8.45;;;;;;;;;;5098390;28;20024;-72
2021/08/22 03:48:51;;;;;;;9.65;8.70;;;;;;;;;;5098538;28;20052;-72
2021/08/22 03:51:19;;;;;;;8.60;7.80;;;;;;;;;;5098187;28;20024;-72
2021/08/22 03:53:45;;;;;;;8.60;7.80;;;;;;;;;;5097983;28;20066;-73
2021/08/22 03:56:11;;;;;;;8.40;7.50;;;;;;;;;;5098195;28;20055;-73
2021/08/22 03:58:37;;;;;;;8.27;7.38;;;;;;;;;;5098074;28;20377;-71
2021/08/22 04:01:03;;;;;;;15.75;8.10;;;;;;;;;;5098142;28;20028;-73
2021/08/22 04:03:29;;;;;;;11.68;8.55;;;;;;;;;;5097893;28;20043;-73
2021/08/22 04:05:55;;;;;;;8.80;6.65;;;;;;;;;;5098057;28;20069;-72
2021/08/22 04:08:24;;;;;;;8.85;8.05;;;;;;;;;;5097583;28;20032;-73
2021/08/22 04:10:50;;;;;;;8.40;7.60;;;;;;;;;;5097881;28;20035;-73
2021/08/22 04:13:16;;;;;;;9.98;7.47;;;;;;;;;;5097829;28;20024;-73
2021/08/22 04:15:43;;;;;;;11.60;8.60;;;;;;;;;;5097959;28;20408;-72
2021/08/22 04:18:09;;;;;;;9.38;8.48;;;;;;;;;;5097698;28;20024;-72
2021/08/22 04:20:35;;;;;;;8.60;7.72;;;;;;;;;;5097416;28;20028;-73
2021/08/22 04:23:01;;;;;;;9.73;8.70;;;;;;;;;;5097386;28;20099;-71
2021/08/22 04:25:27;;;;;;;9.57;8.68;;;;;;;;;;5097507;28;20028;-73
2021/08/22 04:27:54;;;;;;;8.82;8.02;;;;;;;;;;5097601;28;20043;-73
2021/08/22 04:30:20;;;;;;;9.35;8.48;;;;;;;;;;5097814;28;20031;-72
2021/08/22 04:32:46;;;;;;;12.25;8.20;;;;;;;;;;5097572;28;20107;-73
2021/08/22 04:35:12;;;;;;;10.70;9.63;;;;;;;;;;5097475;28;20027;-74
2021/08/22 04:37:38;;;;;;;10.32;9.40;;;;;;;;;;5097063;28;20028;-74
2021/08/22 04:40:06;;;;;;;10.45;9.45;;;;;;;;;;5097173;28;20024;-73
2021/08/22 04:42:32;;;;;;;9.93;8.93;;;;;;;;;;5097719;28;20529;-74
2021/08/22 04:44:59;;;;;;;11.65;8.63;;;;;;;;;;5097674;28;20442;-74
2021/08/22 04:47:25;;;;;;;8.27;7.35;;;;;;;;;;5096945;28;20048;-75
2021/08/22 04:49:51;;;;;;;13.80;9.38;;;;;;;;;;5093094;28;20563;-74
2021/08/22 04:52:17;;;;;;;8.32;7.50;;;;;;;;;;5096436;28;20380;-75
2021/08/22 04:54:43;;;;;;;10.80;9.65;;;;;;;;;;5096977;28;20058;-73
2021/08/22 04:57:09;;;;;;;8.68;7.88;;;;;;;;;;5096478;28;20048;-74
2021/08/22 04:59:35;;;;;;;20.95;7.75;;;;;;;;;;5097455;28;20028;-74
2021/08/22 05:02:01;;;;;;;9.32;8.52;;;;;;;;;;5097624;28;20145;-74
2021/08/22 05:04:28;;;;;;;7.63;6.93;;;;;;;;;;5097395;28;20408;-73
2021/08/22 05:06:55;;;;;;;8.65;7.88;;;;;;;;;;5095823;28;20487;-74
2021/08/22 05:09:21;;;;;;;8.45;7.75;;;;;;;;;;5097269;28;20025;-74
2021/08/22 05:11:47;;;;;;;8.02;7.22;;;;;;;;;;5097475;28;20031;-73
2021/08/22 05:14:16;;;;;;;12.10;8.40;;;;;;;;;;5099710;28;20083;-74
2021/08/22 05:16:44;;;;;;;9.00;8.20;;;;;;;;;;5091534;28;20024;-74
2021/08/22 05:19:10;;;;;;;9.18;8.27;;;;;;;;;;5096044;28;20040;-73
2021/08/22 05:21:41;;;;;;;9.30;8.40;;;;;;;;;;5099159;28;20032;-74
2021/08/22 05:24:31;;;;;;;8.63;7.82;;;;;;;;;;5105096;28;20035;-74
2021/08/22 05:26:57;;;;;;;13.73;8.73;;;;;;;;;;5091977;28;20020;-75
2021/08/22 05:29:23;;;;;;;8.07;7.38;;;;;;;;;;5095641;28;20459;-73
2021/08/22 05:31:49;;;;;;;10.85;9.80;;;;;;;;;;5096373;28;20032;-73
2021/08/22 05:34:15;;;;;;;9.15;8.25;;;;;;;;;;5096294;28;20028;-75
2021/08/22 05:36:43;;;;;;;9.32;7.60;;;;;;;;;;5097124;28;20461;-77
2021/08/22 05:39:09;;;;;;;9.30;7.72;;;;;;;;;;5094801;28;20496;-75
2021/08/22 05:41:35;;;;;;;11.10;7.38;;;;;;;;;;5096421;28;20089;-77
2021/08/22 05:44:01;;;;;;;11.07;8.43;;;;;;;;;;5096649;28;20053;-80
2021/08/22 05:46:27;;;;;;;8.48;7.68;;;;;;;;;;5096346;28;20028;-77
2021/08/22 05:48:54;;;;;;;8.82;8.02;;;;;;;;;;5094925;28;20119;-77
2021/08/22 05:51:21;;;;;;;8.80;7.97;;;;;;;;;;5096251;28;20032;-73
2021/08/22 05:53:48;;;;;;;9.15;6.82;;;;;;;;;;5096389;28;20087;-74
2021/08/22 05:56:14;;;;;;;13.52;8.38;;;;;;;;;;5095940;28;20051;-77
2021/08/22 05:58:40;;;;;;;9.05;8.25;;;;;;;;;;5095072;28;20048;-76
2021/08/22 06:01:06;;;;;;;13.23;7.05;;;;;;;;;;5095616;28;20032;-71
2021/08/22 06:06:38;;;;;;;9.20;7.13;;;;;;;;;;5094361;28;20030;-72
2021/08/22 06:09:04;;;;;;;17.88;8.35;;;;;;;;;;5095457;28;20115;-72
2021/08/22 06:11:31;;;;;;;10.35;7.47;;;;;;;;;;5095254;28;20469;-72
2021/08/22 06:13:57;;;;;;;11.10;8.15;;;;;;;;;;5095433;28;20054;-72
2021/08/22 06:16:23;;;;;;;8.55;7.65;;;;;;;;;;5095058;28;20491;-72
2021/08/22 06:18:49;;;;;;;15.05;6.10;;;;;;;;;;5095242;28;20366;-72
2021/08/22 06:21:15;;;;;;;7.35;6.65;;;;;;;;;;5095011;28;20420;-72
2021/08/22 06:23:41;;;;;;;13.52;7.45;;;;;;;;;;5095478;28;20084;-72
2021/08/22 06:26:08;;;;;;;8.43;7.72;;;;;;;;;;5095205;28;20072;-72
2021/08/22 06:28:34;;;;;;;9.73;7.55;;;;;;;;;;5095068;28;20024;-73
2021/08/22 06:31:00;;;;;;;11.18;7.63;;;;;;;;;;5088894;28;20020;-75
2021/08/22 06:33:26;;;;;;;10.63;7.88;;;;;;;;;;5091411;28;20492;-75
2021/08/22 06:35:52;;;;;;;9.32;7.55;;;;;;;;;;5091452;28;20456;-75
2021/08/22 06:38:18;;;;;;;12.88;9.50;;;;;;;;;;5092878;28;20101;-73
2021/08/22 06:40:44;;;;;;;9.10;8.30;;;;;;;;;;5093509;28;20020;-73
2021/08/22 06:43:10;;;;;;;9.98;7.57;;;;;;;;;;5093337;28;20678;-73
2021/08/22 06:45:36;;;;;;;10.23;9.32;;;;;;;;;;5091854;28;20123;-74
2021/08/22 06:48:02;;;;;;;16.40;8.40;;;;;;;;;;5092699;28;20032;-73
2021/08/22 06:50:28;;;;;;;12.60;9.27;;;;;;;;;;5090877;28;20469;-76
2021/08/22 06:52:54;;;;;;;13.27;8.50;;;;;;;;;;5073147;28;20039;-75
2021/08/22 06:55:21;;;;;;;10.88;8.35;;;;;;;;;;5077579;28;20082;-74
2021/08/22 06:57:47;;;;;;;13.18;8.38;;;;;;;;;;5093754;28;20366;-75
2021/08/22 07:00:14;;;;;;;10.52;8.20;;;;;;;;;;5094244;28;20028;-74
2021/08/22 07:02:42;;;;;;;11.57;9.70;;;;;;;;;;5094095;28;20438;-72
2021/08/22 07:05:08;;;;;;;12.57;7.85;;;;;;;;;;5092573;28;20040;-72
2021/08/22 07:07:34;;;;;;;11.45;9.18;;;;;;;;;;5094001;28;20051;-75
2021/08/22 07:10:00;;;;;;;9.43;8.52;;;;;;;;;;5094187;28;20031;-73
2021/08/22 07:12:26;;;;;;;12.27;8.35;;;;;;;;;;5093924;28;20471;-75
2021/08/22 07:14:52;;;;;;;11.85;9.02;;;;;;;;;;5093751;28;20028;-75
2021/08/22 07:17:20;;;;;;;10.52;8.30;;;;;;;;;;5094844;28;20028;-74
2021/08/22 07:19:46;;;;;;;14.68;10.13;;;;;;;;;;5094950;28;20028;-73
2021/08/22 07:22:12;;;;;;;11.45;8.65;;;;;;;;;;5094228;28;20028;-73
2021/08/22 07:24:38;;;;;;;9.38;8.18;;;;;;;;;;5093798;28;20024;-72
2021/08/22 07:27:05;;;;;;;24.00;9.27;;;;;;;;;;5094819;28;20024;-73
2021/08/22 07:29:31;;;;;;;12.20;7.85;;;;;;;;;;5095187;28;20023;-74
2021/08/22 07:31:57;;;;;;;8.90;8.00;;;;;;;;;;5094457;28;20024;-76
2021/08/22 07:34:23;;;;;;;8.77;7.00;;;;;;;;;;5093343;28;20477;-74
2021/08/22 07:36:49;;;;;;;9.05;7.68;;;;;;;;;;5093431;28;20420;-73
2021/08/22 07:39:15;;;;;;;10.13;8.27;;;;;;;;;;5093029;28;20036;-73
2021/08/22 07:41:41;;;;;;;13.18;9.80;;;;;;;;;;5093727;28;20116;-74
2021/08/22 07:44:07;;;;;;;13.55;8.55;;;;;;;;;;5092483;28;20466;-72
2021/08/22 07:46:33;;;;;;;11.55;8.50;;;;;;;;;;5094198;28;20047;-74
2021/08/22 07:48:59;;;;;;;17.60;10.02;;;;;;;;;;5093705;28;20024;-72
2021/08/22 07:51:25;;;;;;;8.90;8.05;;;;;;;;;;5092864;28;20027;-74
2021/08/22 07:53:51;;;;;;;8.85;8.02;;;;;;;;;;5093784;28;20032;-73
2021/08/22 07:56:17;;;;;;;17.27;9.05;;;;;;;;;;5093306;28;20420;-75
2021/08/22 07:58:43;;;;;;;10.20;7.70;;;;;;;;;;5093723;28;20370;-73
2021/08/22 08:01:10;;;;;;;9.90;8.48;;;;;;;;;;5095380;28;20046;-74
2021/08/22 08:03:36;;;;;;;7.72;6.82;;;;;;;;;;5093824;28;20048;-73
2021/08/22 08:06:02;;;;;;;9.05;8.30;;;;;;;;;;5093398;28;20031;-73
2021/08/22 08:08:28;;;;;;;17.52;8.90;;;;;;;;;;5093711;28;20028;-74
2021/08/22 08:10:54;;;;;;;11.68;9.55;;;;;;;;;;5093934;28;20028;-79
2021/08/22 08:13:20;;;;;;;11.13;8.82;;;;;;;;;;5093685;28;20035;-77
2021/08/22 08:15:46;;;;;;;11.23;8.68;;;;;;;;;;5095580;28;20430;-80
2021/08/22 08:18:12;;;;;;;10.75;8.73;;;;;;;;;;5094339;28;20377;-75
2021/08/22 08:20:38;;;;;;;10.45;7.82;;;;;;;;;;5094339;28;20028;-74
2021/08/22 08:23:04;;;;;;;19.60;8.98;;;;;;;;;;5094460;28;20381;-73
2021/08/22 08:25:30;;;;;;;15.63;7.93;;;;;;;;;;5095494;28;20020;-75
2021/08/22 08:27:56;;;;;;;10.90;8.27;;;;;;;;;;5097871;28;20032;-78
2021/08/22 08:30:22;;;;;;;24.50;7.93;;;;;;;;;;5099964;28;20024;-77
2021/08/22 08:32:49;;;;;;;11.40;7.90;;;;;;;;;;5099077;28;20496;-77
2021/08/22 08:35:16;;;;;;;12.32;8.48;;;;;;;;;;5098531;28;20111;-76
2021/08/22 08:37:42;;;;;;;11.55;7.63;;;;;;;;;;5098863;28;20020;-76
2021/08/22 08:40:13;;;;;;;16.20;8.20;;;;;;;;;;5098529;28;20027;-76
2021/08/22 08:42:45;;;;;;;8.50;6.85;;;;;;;;;;5098289;28;20029;-77
2021/08/22 08:45:19;;;;;;;10.15;7.10;;;;;;;;;;5099387;28;20028;-78
2021/08/22 08:47:46;;;;;;;9.68;7.50;;;;;;;;;;5097794;28;20490;-74
2021/08/22 08:50:15;;;;;;;9.07;7.00;;;;;;;;;;5096925;28;20366;-77
2021/08/22 08:52:59;;;;;;;12.02;9.13;;;;;;;;;;5096632;28;20062;-78
2021/08/22 08:55:28;;;;;;;13.27;8.73;;;;;;;;;;5097339;28;20059;-77
2021/08/22 08:57:56;;;;;;;9.82;7.82;;;;;;;;;;5097798;28;20028;-76
2021/08/22 09:00:27;;;;;;;12.10;7.53;;;;;;;;;;5100039;28;20093;-77
2021/08/22 09:02:53;;;;;;;8.82;7.60;;;;;;;;;;5114389;28;20034;-78
2021/08/22 09:05:27;;;;;;;10.52;6.70;;;;;;;;;;5118424;28;20020;-78
2021/08/22 09:08:08;;;;;;;9.30;8.38;;;;;;;;;;5117658;28;20032;-77
2021/08/22 09:10:54;;;;;;;11.15;6.93;;;;;;;;;;5119358;28;20354;-77
2021/08/22 09:13:39;;;;;;;9.98;9.07;;;;;;;;;;5081689;28;20428;-77
2021/08/22 09:16:25;;;;;;;11.57;8.30;;;;;;;;;;5097517;28;20028;-75
2021/08/22 09:19:11;;;;;;;13.38;8.57;;;;;;;;;;5095668;28;20044;-74
2021/08/22 09:21:57;;;;;;;11.10;8.52;;;;;;;;;;5094555;28;20028;-75
2021/08/22 09:24:43;;;;;;;9.50;7.47;;;;;;;;;;5096788;28;20115;-76
2021/08/22 09:27:28;;;;;;;10.38;8.38;;;;;;;;;;5097719;28;20027;-76
2021/08/22 09:30:14;;;;;;;8.05;7.25;;;;;;;;;;5095063;28;20024;-76
2021/08/22 09:33:02;;;;;;;9.13;7.47;;;;;;;;;;5094591;28;20063;-77
2021/08/22 09:35:48;;;;;;;9.70;8.80;;;;;;;;;;5094956;28;20041;-77
2021/08/22 09:38:34;;;;;;;18.40;8.07;;;;;;;;;;5095569;28;20020;-77
2021/08/22 09:41:20;;;;;;;11.63;10.02;;;;;;;;;;5094410;28;20916;-76
2021/08/22 09:44:06;;;;;;;11.55;9.02;;;;;;;;;;5102303;28;20030;-76
2021/08/22 09:46:53;;;;;;;13.70;10.30;;;;;;;;;;5101930;28;20346;-76
2021/08/22 09:49:38;;;;;;;13.90;12.15;;;;;;;;;;5100872;28;20043;-78
2021/08/22 09:52:25;;;;;;;18.85;11.50;;;;;;;;;;5101204;28;20024;-76
2021/08/22 09:55:10;;;;;;;22.55;13.52;;;;;;;;;;5100086;28;20098;-76
2021/08/22 09:57:56;;;;;;;23.20;13.20;;;;;;;;;;5098908;28;20020;-75
2021/08/22 10:00:42;;;;;;;21.02;15.15;;;;;;;;;;5075511;28;20028;-77
2021/08/22 10:03:28;;;;;;;29.20;16.65;;;;;;;;;;5060149;28;20086;-77
2021/08/22 10:06:14;;;;;;;23.10;15.02;;;;;;;;;;5061758;28;20052;-77
2021/08/22 10:08:53;;;;;;;23.58;15.70;;;;;;;;;;5060256;28;20024;-77
2021/08/22 10:11:24;;;;;;;27.88;17.50;;;;;;;;;;5094749;28;20365;-77
2021/08/22 10:13:50;;;;;;;32.50;20.92;;;;;;;;;;5096960;28;20024;-76
2021/08/22 10:16:19;;;;;;;28.10;20.20;;;;;;;;;;5095409;28;20027;-76
2021/08/22 10:18:45;;;;;;;33.75;22.25;;;;;;;;;;5095537;28;20504;-78
2021/08/22 10:21:11;;;;;;;39.15;21.20;;;;;;;;;;5093127;28;20060;-78
2021/08/22 10:23:47;;;;;;;40.13;22.15;;;;;;;;;;5096564;28;20024;-78
2021/08/22 10:26:34;;;;;;;35.03;21.10;;;;;;;;;;5096406;28;20369;-78
2021/08/22 10:29:02;;;;;;;32.83;18.90;;;;;;;;;;5080661;28;20031;-78
2021/08/22 10:31:48;;;;;;;31.70;21.02;;;;;;;;;;5094633;28;20050;-76
2021/08/22 10:34:22;;;;;;;28.65;18.90;;;;;;;;;;5079078;28;20369;-78
2021/08/22 10:36:48;;;;;;;31.67;18.80;;;;;;;;;;5095968;28;20107;-77
2021/08/22 10:39:30;;;;;;;30.20;14.90;;;;;;;;;;5094617;28;20030;-79
2021/08/22 10:41:57;;;;;;;17.70;12.35;;;;;;;;;;5093202;28;20096;-77
2021/08/22 10:44:39;;;;;;;16.73;10.07;;;;;;;;;;5093957;28;20115;-76
2021/08/22 10:47:10;;;;;;;13.50;7.95;;;;;;;;;;5094723;28;20023;-76
2021/08/22 10:49:56;;;;;;;11.25;7.45;;;;;;;;;;5093534;28;20031;-76
2021/08/22 10:52:23;;;;;;;6.05;5.55;;;;;;;;;;5079956;28;20035;-77
2021/08/22 10:55:08;;;;;;;5.60;4.47;;;;;;;;;;5092843;28;20035;-77
2021/08/22 10:57:50;;;;;;;8.25;5.15;;;;;;;;;;5079730;28;20459;-77
2021/08/22 11:00:35;;;;;;;5.85;5.25;;;;;;;;;;5092314;28;20469;-75
2021/08/22 11:03:02;;;;;;;5.18;4.30;;;;;;;;;;5095142;28;20028;-78
2021/08/22 11:05:30;;;;;;;5.72;5.13;;;;;;;;;;5094354;28;20016;-78
2021/08/22 11:08:11;;;;;;;4.93;4.45;;;;;;;;;;5094331;28;20020;-79
2021/08/22 11:10:37;;;;;;;5.82;4.70;;;;;;;;;;5106348;28;20026;-77
2021/08/22 11:13:03;;;;;;;5.32;4.82;;;;;;;;;;5105166;28;20666;-77
2021/08/22 11:15:30;;;;;;;9.93;4.07;;;;;;;;;;5092872;28;20050;-77
2021/08/22 11:17:58;;;;;;;5.57;4.00;;;;;;;;;;5093922;28;20031;-78
2021/08/22 11:20:27;;;;;;;8.35;4.43;;;;;;;;;;5092406;28;20040;-75
2021/08/22 11:23:09;;;;;;;6.93;4.93;;;;;;;;;;5094673;28;20118;-76
2021/08/22 11:25:36;;;;;;;11.68;6.68;;;;;;;;;;5094213;28;20533;-77
2021/08/22 11:28:04;;;;;;;4.50;4.10;;;;;;;;;;5094108;28;20400;-75
2021/08/22 11:30:30;;;;;;;4.85;4.35;;;;;;;;;;5092196;28;20024;-80
2021/08/22 11:32:56;;;;;;;3.78;3.40;;;;;;;;;;5094151;28;20032;-78
2021/08/22 11:35:24;;;;;;;10.60;5.22;;;;;;;;;;5092290;28;20028;-77
2021/08/22 11:37:50;;;;;;;6.32;4.18;;;;;;;;;;5092501;28;20028;-78
2021/08/22 11:40:17;;;;;;;6.80;4.40;;;;;;;;;;5091217;28;20040;-77
2021/08/22 11:42:51;;;;;;;4.82;4.30;;;;;;;;;;5094170;28;20074;-78
2021/08/22 11:45:17;;;;;;;4.93;4.35;;;;;;;;;;5094644;28;20052;-76
2021/08/22 11:47:43;;;;;;;11.55;4.40;;;;;;;;;;5094094;28;20036;-75
2021/08/22 11:50:11;;;;;;;9.55;4.25;;;;;;;;;;5092187;28;20024;-75
2021/08/22 11:52:38;;;;;;;6.57;4.45;;;;;;;;;;5093007;28;20020;-75
2021/08/22 11:55:07;;;;;;;5.13;4.03;;;;;;;;;;5093990;28;20028;-77
2021/08/22 11:57:33;;;;;;;5.60;4.97;;;;;;;;;;5093392;28;20063;-76
2021/08/22 12:00:01;;;;;;;4.60;4.03;;;;;;;;;;5103287;28;20027;-77
2021/08/22 12:02:27;;;;;;;7.72;4.75;;;;;;;;;;5118189;28;20073;-77
2021/08/22 12:05:13;;;;;;;4.00;3.70;;;;;;;;;;5108085;28;20024;-77
2021/08/22 12:07:40;;;;;;;4.38;3.97;;;;;;;;;;5082570;28;20532;-78
2021/08/22 12:10:06;;;;;;;4.18;3.78;;;;;;;;;;5095689;28;20098;-77
2021/08/22 12:12:40;;;;;;;5.32;3.90;;;;;;;;;;5097538;28;20071;-77
2021/08/22 12:15:07;;;;;;;5.20;4.70;;;;;;;;;;5097897;28;20028;-73
2021/08/22 12:17:33;;;;;;;5.82;4.60;;;;;;;;;;5097283;28;20481;-73
2021/08/22 12:20:15;;;;;;;6.68;4.07;;;;;;;;;;5111246;28;20070;-74
2021/08/22 12:22:41;;;;;;;4.70;4.30;;;;;;;;;;5116400;28;20027;-73
2021/08/22 12:25:07;;;;;;;6.47;3.80;;;;;;;;;;5117600;28;20127;-73
2021/08/22 12:27:37;;;;;;;4.88;4.03;;;;;;;;;;5117111;28;20051;-74
2021/08/22 12:30:07;;;;;;;5.65;3.50;;;;;;;;;;5116931;28;20480;-81
2021/08/22 12:32:35;;;;;;;5.90;3.50;;;;;;;;;;5113475;28;20020;-77
2021/08/22 12:35:02;;;;;;;4.43;3.85;;;;;;;;;;5096902;28;20470;-80
2021/08/22 12:37:28;;;;;;;6.20;3.92;;;;;;;;;;5096713;28;20022;-79
2021/08/22 12:39:56;;;;;;;5.72;3.08;;;;;;;;;;5096187;28;20409;-75
2021/08/22 12:42:22;;;;;;;4.50;4.00;;;;;;;;;;5093586;28;20032;-75
2021/08/22 12:44:48;;;;;;;2.83;2.63;;;;;;;;;;5115586;28;20400;-73
2021/08/22 12:47:14;;;;;;;4.88;3.88;;;;;;;;;;5116234;28;20030;-71
2021/08/22 12:49:40;;;;;;;7.40;3.90;;;;;;;;;;5116035;28;20073;-80
2021/08/22 12:52:10;;;;;;;5.15;3.38;;;;;;;;;;5094449;28;20020;-82
2021/08/22 12:54:36;;;;;;;4.88;3.53;;;;;;;;;;5096992;28;20028;-78
2021/08/22 12:57:02;;;;;;;3.80;3.50;;;;;;;;;;5099376;28;20083;-78
2021/08/22 12:59:28;;;;;;;6.07;3.63;;;;;;;;;;5098337;28;20107;-79
2021/08/22 13:01:55;;;;;;;4.03;3.50;;;;;;;;;;5098702;28;20016;-78
2021/08/22 13:04:21;;;;;;;6.68;3.45;;;;;;;;;;5096614;28;20074;-78
2021/08/22 13:06:47;;;;;;;3.88;3.58;;;;;;;;;;5097378;28;20028;-80
2021/08/22 13:09:13;;;;;;;6.13;3.95;;;;;;;;;;5097779;28;20039;-77
2021/08/22 13:11:40;;;;;;;10.52;4.00;;;;;;;;;;5096478;28;20031;-79
2021/08/22 13:14:07;;;;;;;4.57;3.92;;;;;;;;;;5097300;28;20079;-78
2021/08/22 13:16:34;;;;;;;4.13;3.40;;;;;;;;;;5097524;28;20028;-79
2021/08/22 13:19:00;;;;;;;4.53;4.00;;;;;;;;;;5098369;28;20044;-78
2021/08/22 13:21:26;;;;;;;6.07;3.88;;;;;;;;;;5097788;28;20020;-77
2021/08/22 13:23:52;;;;;;;4.07;3.50;;;;;;;;;;5096940;28;20039;-77
2021/08/22 13:26:19;;;;;;;4.55;4.15;;;;;;;;;;5098420;28;20048;-79
2021/08/22 13:28:45;;;;;;;11.70;4.15;;;;;;;;;;5106187;28;20031;-88
2021/08/22 13:31:11;;;;;;;7.38;4.43;;;;;;;;;;5119698;28;20024;-79
2021/08/22 13:33:37;;;;;;;13.10;4.20;;;;;;;;;;5104981;28;20020;-78
2021/08/22 13:36:03;;;;;;;10.93;4.10;;;;;;;;;;5096925;28;20035;-80
2021/08/22 13:38:29;;;;;;;3.90;3.47;;;;;;;;;;5098183;28;20382;-81
2021/08/22 13:40:55;;;;;;;5.05;3.70;;;;;;;;;;5097231;28;20073;-79
2021/08/22 13:43:22;;;;;;;4.60;3.47;;;;;;;;;;5094921;28;20028;-76
2021/08/22 13:45:48;;;;;;;3.97;3.17;;;;;;;;;;5096506;28;20024;-78
2021/08/22 13:48:14;;;;;;;7.95;3.78;;;;;;;;;;5096023;28;20032;-79
2021/08/22 13:50:40;;;;;;;4.70;4.28;;;;;;;;;;5095169;28;20059;-77
2021/08/22 13:53:07;;;;;;;5.85;4.43;;;;;;;;;;5093962;28;20481;-77
2021/08/22 13:55:33;;;;;;;5.00;4.13;;;;;;;;;;5096195;28;20051;-78
2021/08/22 13:57:59;;;;;;;4.53;4.13;;;;;;;;;;5095842;28;20039;-78
2021/08/22 14:00:26;;;;;;;5.03;4.53;;;;;;;;;;5097126;28;20028;-82
2021/08/22 14:02:52;;;;;;;5.15;3.65;;;;;;;;;;5095443;28;20032;-81
2021/08/22 14:05:19;;;;;;;7.13;4.10;;;;;;;;;;5097107;28;20056;-79
2021/08/22 14:07:45;;;;;;;4.18;3.75;;;;;;;;;;5095838;28;20459;-78
2021/08/22 14:10:11;;;;;;;6.63;3.90;;;;;;;;;;5094981;28;20073;-76
2021/08/22 14:12:37;;;;;;;6.05;4.38;;;;;;;;;;5094331;28;20023;-75
2021/08/22 14:15:04;;;;;;;4.03;3.53;;;;;;;;;;5094620;28;20043;-79
2021/08/22 14:17:30;;;;;;;11.05;4.55;;;;;;;;;;5094982;28;20481;-78
2021/08/22 14:19:56;;;;;;;5.47;3.90;;;;;;;;;;5094591;28;20380;-77
2021/08/22 14:22:22;;;;;;;7.03;4.68;;;;;;;;;;5095069;28;20074;-77
2021/08/22 14:24:48;;;;;;;5.53;5.07;;;;;;;;;;5095028;28;20544;-80
2021/08/22 14:27:14;;;;;;;5.38;4.82;;;;;;;;;;5095102;28;20376;-84
2021/08/22 14:29:40;;;;;;;11.75;4.88;;;;;;;;;;5095465;28;20027;-80
2021/08/22 14:32:11;;;;;;;5.35;4.88;;;;;;;;;;5094545;28;20035;-79
2021/08/22 14:34:37;;;;;;;4.45;4.10;;;;;;;;;;5095282;28;20054;-78
2021/08/22 14:37:03;;;;;;;6.43;4.63;;;;;;;;;;5093777;28;20028;-76
2021/08/22 14:39:29;;;;;;;7.78;5.35;;;;;;;;;;5093959;28;20036;-77
2021/08/22 14:41:59;;;;;;;12.45;5.65;;;;;;;;;;5093923;28;20115;-77
2021/08/22 14:44:25;;;;;;;5.95;4.97;;;;;;;;;;5094075;28;20035;-77
2021/08/22 14:46:51;;;;;;;8.52;5.28;;;;;;;;;;5094326;28;20020;-76